172-й км

Карта отелей и гостиниц, располагающихся рядом с аэропортом 172-й км :

172-й км Ямало-Ненецкий автономный округ 65° 37' 45.9588" N, 73° 44' 8.2212" E
172-й км Ямало-Ненецкий автономный округ 65° 37' 45.9588" N, 73° 44' 8.2212" E
Код аэродрома ИКАО
HB69
Код аэродрома RU
ХБ69
Координаты
N65.62943° E073.73562°
Превышение над уровнем моря
70
Основная полоса
Курс магнитный
Длина основной ВПП
Ширина основной ВПП
Покрытие основной ВПП
Освещение ВПП
Тип: 
Вертодром
Класс аэродрома: 
Принадлежность: 
ГА
Статус: 
Недействующий
Сайт: 
E-mail аэродрома: 
Страна: 
Россия
Регион: 
Ямало-Ненецкий автономный округ
Город: 
Дополнительная информация: 

Найти трансфер

С помощью этой формы Вы можете найти трансфер из аэропорта 172-й км в город, аэропорт или вокзал:

Карта места

Javascript is required to view this map.

Погода в аэропортах:

Авиационная погода в Гостомеле

Регион: 
Погода METAR: 
UKKM 251830Z AUTO 14008MPS 9000 -RA OVC007/// 08/07 Q0993
Время наблюдения
2021-01-25T18:30:00Z
Температура C
8.0
Точка росы
7.0
Направление ветра
140
Скорость ветра (узлы)
16
Метео видимость
5.59
Явления погоды
-RA
Условия полета
IFR
Аэропорт подробнее: 

Авиационная погода в Вадсё

Регион: 
Погода METAR: 
ENVD 251850Z 13005KT 110V170 9999 -SN FEW007 BKN010 M04/M05 Q1007
Время наблюдения
2021-01-25T18:50:00Z
Температура C
-4.0
Точка росы
-5.0
Направление ветра
130
Скорость ветра (узлы)
5
Метео видимость
6.21
Явления погоды
-SN
Условия полета
MVFR

Авиационная погода в Симферополе

Погода METAR: 
URFF 251830Z 19009MPS 9999 -RA FEW048 10/06 Q1004 R19/090095 NOSIG
Время наблюдения
2021-01-25T18:30:00Z
Температура C
10.0
Точка росы
6.0
Направление ветра
190
Скорость ветра (узлы)
17
Метео видимость
6.21
Явления погоды
-RA
Условия полета
VFR
Аэропорт подробнее: 

Авиационная погода в Минске

Регион: 
Погода METAR: 
UMMS 251830Z 10006MPS 7000 -SHRA OVC005CB 01/01 Q0995 R13L/290050 R13R/////// NOSIG RMK QBB170
Время наблюдения
2021-01-25T18:30:00Z
Температура C
1.0
Точка росы
1.0
Направление ветра
100
Скорость ветра (узлы)
12
Метео видимость
4.35
Явления погоды
-SHRA
Условия полета
IFR
Аэропорт подробнее: